Etusivu
METAR-TAF:

METAR-TAF

Lentoasemat :

Alexander City, Alabama, Yhdysvallat

Leveyspiiri: 32-54-53N, Pituuspiiri: 085-57-46W, korkeus merenpinnasta: 209 m

Tämänhetkinen sää

Tämä raportti tehtiin 24 minuuttia sitten, kello 10.35 UTC
Tuuli 14 kn pohjoisesta puuskistuen 27 kn:hen
Lämpötila 7°C
Kosteus 87%
Ilmanpaine 1017 hPa
Näkyvyys: 16.1 km
Hajanaisia pilviä 600 ft:n korkeudessa
Hajanaisia pilviä 1000 ft:n korkeudessa
Pilvistä 1400 ft:n korkeudessa
heikkoa sadetta

METAR: KALX 121035Z AUTO 35014G27KT 10SM -RA SCT006 SCT010 OVC014 07/05 A3002 RMK AO2 P0008 T00650052

Aika: 04:59 (10:59 UTC)


TAF: puuttuu

Säähavainnot ja -ennusteet yli 4000 lentoasemalta (METAR- ja TAF-raportit).

Käytössä olevat sääasemat on merkitty karttaan keltaisilla ja punaisilla pisteillä.

Aseta hiiri pisteen päälle nähdäksesi sääaseman nimen.

Klikkaa sitten nähdäksesi säähavainnot ja -ennusteet.

Kartan vaihtaminen: klikkaa mustalla rastilla varustettuja vihreitä pisteitä, niin voit zoomata sisään; viivalla varustettua vihreää pistettä, niin voit zoomata ulos tai vihreitä nuolia, niin pääset viereisille kartoille.


METAR-TAF: